This site, now in its 15th season, is a labour of love and fun from one of Ottawa's most avid time trialists and number crunchers. It adheres to and is permitted by the laws of Canada, promotes the objectives of every bicycle club whose results are shown, and is donated free of charge by myself for your enjoyment and usage. If you would like results from series you ride in to be shown here, give me (celia@drmath.ca) a shout!


Index Page
ATT OTT WTT AATT CFCTT VVVTT
Help resultformat:
Case-sensitive

OBC Open TT Series - 1997-Aug-14 - 15km (Rockliffe Pkwy) (EvtFactor = 0.9713)

Weather (18:00): Mostly Cloudy. Temp.: 21.9C, Humidity: 48%, DewPoint: 10.3C, Wind: W 4km/h, Pressure: 99.96kPa, Visibility: 40.2km.
Weather (19:00): Mostly Cloudy. Temp.: 21.2C, Humidity: 50%, DewPoint: 10.4C, Wind: NW 4km/h, Pressure: 99.96kPa, Visibility: 40.2km.
Weather (20:00): Mostly Cloudy. Temp.: 20.5C, Humidity: 54%, DewPoint: 10.9C, Wind: 0km/h, Pressure: 99.96kPa, Visibility: 40.2km.

Send photos with description (when/where/what) of yourself on or off of bike to celia@drmath.ca

 
 

BESTS?
 
1 Fillion, Aaron  --- 19:34 45.997 1/70 SEM 1/11 1.0128
2 Greenberg, Mike --- 20:23 44.154 2/70 SEM 2/11 1.0273
3 Datars, Paul  OBC 20:33 43.796 3/70 VAM 1/18 1.0122
4 Brooks, James --- 20:54 43.062 4/70 VAM 2/18  
5 Reinisch, Stephen --- 20:55 43.028 5/70 VAM 3/18 0.9952
6 Parkin, Brian OBC 21:02 42.789 6/70 VBM 1/11 0.9811
7 Roy, Patrick OBC 21:10 42.520 7/70 VBM 2/11 0.8692
8 Buffa, Alex  OBC 21:15 42.353 8/70 SEM 3/11 0.9651
9 Martignago, Mike OBC 21:16 42.320 9/70 VAM 4/18 0.9767
10 Toelke, Joachim --- 21:31 41.828 10/70 SEM 4/11  
11 Roy, Eric --- 21:35 41.699 11/70 SEM 5/11 0.9656
12 Griffiths, Chris OBC 21:40 41.538 12/70 VCM 1/11 0.9500
13 Hayes, Michael --- 21:58 40.971 13/70 SEM 6/11  
14 Morvan, Jacques  OBC 21:59 40.940 14/70 VCM 2/11 1.0137
15 Simpson, Bob OBC 22:02 40.847 15/70 VBM 3/11 0.9013
16 Moerman, Bram  OBC 22:03 40.816 16/70 VCM 3/11 1.0696
17 Burke, Aaron --- 22:12 40.541 17/70 CAM 1/3 1.2820
18 Cousineau, Luc --- 22:14 40.480 18/70 SEM 7/11 0.9470
19 Ashcroft, Mike OBC 22:16 40.419 19/70 VAM 5/18 0.9733
Romkey, Gary OBC 22:16 40.419 19/70 VCM 4/11 1.0226
21 Zab, Randy --- 22:25 40.149 21/70 SEM 8/11 0.9539
22 St-Amour, Pierre OBC 22:27 40.089 22/70 VBM 4/11 0.9779
23 Lewis, Ron OBC 22:28 40.059 23/70 VBM 5/11 0.9757
24 Budd, Daniel OBC 22:36 39.823 24/70 VAM 6/18 1.0156
25 Burge, Larry  --- 22:38 39.764 25/70 VAM 7/18 0.9225
26 Plantadis, Oliver --- 22:40 39.706 26/70 SEM 9/11 0.9395
27 Franks, Greg OBC 22:45 39.560 27/70 VAM 8/18 0.9890
28 Burdett, Avery  OBC 22:56 39.244 28/70 VCM 5/11 1.0176
Dub, Denis OBC/ABC 22:56 39.244 28/70 VAM 9/18 1.0375
30 Gilchrist, Ryan  OBC 22:58 39.187 30/70 VAM 10/18 0.9424
31 Huffman, Devin OBC 23:01 39.102 31/70 CAM 2/3 1.0734
32 Martin, Gilles OBC 23:03 39.046 32/70 VAM 11/18 0.9615
33 Humphreys, Les  OBC/ABC 23:10 38.849 33/70 VCM 6/11 1.0438
34 Bachman, Mike OBC 23:15 38.710 34/70 VCM 7/11 0.9597
35 Atkinson, John OBC 23:16 38.682 35/70 VBM 6/11 0.9410
36 Moore, Richard --- 23:22 38.516 36/70 VAM 12/18 1.0302
37 Kuziak, Natalya --- 23:26 38.407 37/70 VAF 1/4 1.0280
Paterson, Gail OBC 23:26 38.407 37/70 VAF 1/4 1.0107
Paterson, Mary OBC 23:26 38.407 37/70 VAF 1/4 0.9663
40 Boody, Michael --- 23:29 38.325 40/70 JUM 1/2 0.9012
41 Anderson, Allan OBC 23:30 38.298 41/70 VAM 13/18 1.0236
42 Davison, Peter OBC 23:33 38.217 42/70 VCM 8/11 1.0431
43 Thibodeau, David --- 23:43 37.948 43/70 VAM 14/18 1.0234
44 Taylor, Doug --- 23:48 37.815 44/70 VBM 7/11  
45 Austen, Ian  OBC 23:59 37.526 45/70 VBM 8/11 0.9609
46 Janusauskas, Vytas  OBC 24:03 37.422 46/70 VBM 9/11 1.0443
47 James, Peter OBC 24:05 37.370 47/70 VBM 10/11 0.9855
48 Coldwell, Michael  OBC 24:06 37.344 48/70 VAM 15/18 0.9733
49 Beattie, Lyall OBC 24:14 37.139 49/70 VAM 16/18 0.9775
50 Sanchez, Norman --- 24:16 37.088 50/70 VAM 17/18 1.1022
51 Coleman, Don OBC 24:18 37.037 51/70 VBM 11/11 1.0417
52 Gauthier, Renée --- 24:22 36.936 52/70 SEF 1/3  
53 Picard, Christian --- 24:34 36.635 53/70 JUM 2/2 1.0164
54 Roy, Kathy OBC 24:36 36.585 54/70 SEF 2/3 1.0142
55 Maly, Peter --- 24:41 36.462 55/70 SEM 10/11 1.0102
56 Gerlich, Sebastien --- 24:43 36.413 56/70 SEM 11/11  
57 McInnis, Celia  OBC 24:44 36.388 57/70 VBF 1/2 1.0265
58 Ajersch, Mary  OBC 24:54 36.145 58/70 VCF 1/1 1.0284
Cousineau, Simon OBC 24:54 36.145 58/70 MIM 1/2 0.9410
60 Datars, Sally OBC 24:56 36.096 60/70 VAF 4/4 1.0201
61 Day, Lee-Ann --- 26:02 34.571 61/70 SEF 3/3 0.8438
62 Lennox, David OBC 26:22 34.134 62/70 VCM 9/11 0.9662
63 Coleman, Sheila OBC 26:27 34.026 63/70 VBF 2/2 1.1259
64 Cousineau, Martin OBC 26:31 33.941 64/70 CAM 3/3 0.9301
65 Seidel, Kevin --- 26:53 33.478 65/70 VAM 18/18  
66 Wilson, George --- 27:17 32.987 66/70 VCM 10/11 1.1419
67 Salois, Olivier --- 27:21 32.907 67/70 MIM 2/2 1.0616
Y 68 Charbonneau, Eric OBC 27:23 32.867 68/70 PWM 1/1 1.2631
69 Pstross, Nick --- 27:51 32.316 69/70 VCM 11/11 1.0963
70 Murray, Heather OBC 28:39 31.414 70/70 CAF 1/1 0.9758
 
Average Speed of all of the above 70 finishes (1050km in 27:25:16):38.292
>>>Average of the Average Speeds for these 70 finishes38.535<<<
 

The number of data records shown above is 70
The server processing of your query took: 0 wallclock secs ( 0.16 usr + 0.01 sys = 0.17 CPU)

     


Mar 28 (Good Friday)
May 6 (10km) May 8 May 13 May 13 (10km) May 15 May 20 May 20 (10km) May 22 May 27 May 27 (10km) May 29
Jun 3 Jun 3 Jun 5 Jun 10 Jun 10 Jun 12 Jun 14 (22km) Jun 17 Jun 17 Jun 19 Jun 21 (38km) Jun 24 Jun 24 Jun 26 Jun 28 (22km)
Jul 3 Jul 8 Jul 8 Jul 10 Jul 12 (22km) Jul 13 (40km) Jul 15 Jul 15 Jul 17 Jul 19 (38km) Jul 22 Jul 22 Jul 26 (38km) Jul 29 Jul 29 Jul 31
Aug 5 Aug 5 Aug 7 Aug 12 Aug 12
  Aug 14  
Aug 16 (40km) Aug 19 Aug 19 Aug 26 Aug 26 (Invitational) Aug 28 (rained out)
Sep 7 (40km) Sep 16 Sep 21 (40km) Sep 23

OTT Rankings
Best       Best by category
WTT Rankings for OBC Members
5 Best 15km     5 Best 15km by category
OBC Member Best Three 15km Rankings
Overall     by category
OBC BAR Ranking
Overall     by category     Rider "Consistency-Graph"
ABC BAR Ranking
Overall     by category     Rider "Consistency-Graph"
Other years
TT Calculator All TT People All TT events
ABC Home VVV Home
CKAP GOLD MEDAL
Other Links

Please send your comments and suggestions to: Celia McInnis
Copyright © 1998-2011 Celia McInnis. All rights reserved. Links are welcomed.